Moon, Virginia
Current Conditions -  °F | °C
As of 5:15 AM on Thursday 23 Oct 2014 (Local Time) from KW75 Reporting Station
Overcast Overcast  
Wind Chill: 53°   Ceiling: 2800
Heat Index: 53°   Visibility: 10mi
Dew Point: 44°   Wind: 14mph
Humidity: 72%   Direction: 310°NW
Pressure: 29.86"   Gusts: 28mph
Location:  37.44°N, 76.29°W
Report Text: KW75 230915Z AUTO 31012G24KT 10SM BKN028 OVC035 12/07 A2986 RMK AO1 T01150067
Loading
Personal Weather Stations






























Interactive Weather Map
Tropical Storm Tracking
New forecast layout! Learn more

10-Day Weather Forecast

Advertisements
Track Severe Weather on mobile